Aérodrome :
LOGIN :

S'inscrire | Disclaimer

   EN    FR    IT 

 










Légende :    VFR   VFR Marginal   IFR   IFR Intensif   IFR Très Intensif
Visi : 
Plafond : 
>= 8 km
>= 3000ft
5 à 8 km
1000 à 3000 ft
1500m à 5 km
500 à 1000 ft
800 à 1500m
200 à 500 ft
< 800m
< 200 ft
Symboles :   Orages  Brouillard  Fortes neiges  Fortes précipitations  Vent > 20 kt
SIGMETs :   Divers  Orages  Givrage  Turbulence  Onde Orograph.  Cendres Volcan.







- Altitude de l'aérodrome : 628 ft
- Code IATA : PNL


LICG - Pantelleria

DERNIER METAR :
  • 221455Z /////KT CAVOK 20/15 Q1018

METARs EXPIRÉS :
  • 221355Z /////KT 9999 FEW020 21/14 Q1018
  • 221255Z /////KT 9999 FEW020 20/14 Q1018 RMK SCT SCT200 VIS MIN 9999 WIND THR08 /////KT WIND THR21 03006KT BLU

TAF TAF LICG
Valide du 22 à 12h jusqu'au 22 à 21h UTC


221100Z 2212/2221 33008KT 9999 FEW015
Pas de NOTAMs connus pour ce terrain.



MET'MAP, la Météo Aéronautique d'un coup d'oeil ! - Copyright ORBIFLY Décembre 2007 - Disclaimer

ORBIFLY MET'MAP TEAM :

Programmation & Développement : Alexandra Zaïnal
Conception & Développement : Baudouin d'Aumeries
Co-Programmation & Développement : Marc-Olivier Méhu
Soutien technique & logistique : Manuel Goepfert

Contact : metmap@orbifly.com




SOURCES & CREDITS :

   NOAA